Time;durP1;ratioP1;P1;durP2;ratioP2;P2;SDS_P1;SDS_P2;PMS_P1;PMS_P2;Temp;Humidity;BMP_temperature;BMP_pressure;BME280_temperature;BME280_humidity;BME280_pressure;Samples;Min_cycle;Max_cycle;Signal;HPM_P1;HPM_P2
2024/03/31 00:09:06;;;;;;;35.40;10.90;;;11.90;85.50;;;;;;4580046;30;20286;-84
2024/03/31 00:24:32;;;;;;;33.57;10.13;;;12.20;86.50;;;;;;4700326;29;20241;-83
2024/03/31 00:54:25;;;;;;;30.33;10.37;;;10.90;88.00;;;;;;4663742;29;20673;-83
2024/03/31 01:15:01;;;;;;;36.00;10.73;;;10.50;90.30;;;;;;4608365;30;20268;-82
2024/03/31 01:35:26;;;;;;;24.37;9.30;;;10.10;91.60;;;;;;4520495;30;21556;-84
2024/03/31 02:05:50;;;;;;;31.90;10.57;;;9.70;93.20;;;;;;4586515;30;20212;-81
2024/03/31 02:25:39;;;;;;;50.30;16.93;;;9.20;94.30;;;;;;4515739;30;20577;-84
2024/03/31 02:46:39;;;;;;;29.17;8.87;;;9.30;95.80;;;;;;4650558;29;20677;-83
2024/03/31 02:50:58;;;;;;;25.33;10.17;;;9.40;96.30;;;;;;4656939;29;20639;-82
2024/03/31 03:06:48;;;;;;;20.53;8.93;;;9.70;96.10;;;;;;4735150;29;20578;-84
2024/03/31 03:36:42;;;;;;;26.70;7.83;;;10.00;97.90;;;;;;4596745;29;20596;-82
2024/03/31 03:57:22;;;;;;;21.83;8.37;;;10.20;94.30;;;;;;4514358;30;20221;-84
2024/03/31 04:22:46;;;;;;;16.03;6.77;;;10.70;94.60;;;;;;4650521;29;20214;-85
2024/03/31 04:48:20;;;;;;;15.33;6.80;;;11.20;91.40;;;;;;4739415;29;20376;-83
2024/03/31 05:13:10;;;;;;;14.07;5.93;;;12.10;90.80;;;;;;4668504;29;20985;-85
2024/03/31 05:38:52;;;;;;;12.40;5.90;;;13.00;89.00;;;;;;4629158;30;20208;-83
2024/03/31 06:09:29;;;;;;;11.27;5.30;;;14.10;87.10;;;;;;4744672;29;20340;-83
2024/03/31 06:34:08;;;;;;;14.37;5.03;;;15.20;85.40;;;;;;4676547;29;20461;-84
2024/03/31 06:54:53;;;;;;;7.57;4.50;;;15.70;84.50;;;;;;4517928;30;20255;-84
2024/03/31 07:25:27;;;;;;;7.20;3.58;;;18.40;82.00;;;;;;4626375;30;20747;-84
2024/03/31 07:55:58;;;;;;;5.18;2.80;;;20.40;78.70;;;;;;4696529;29;20218;-84
2024/03/31 08:16:17;;;;;;;3.63;2.38;;;20.80;71.60;;;;;;4632263;29;21302;-82
2024/03/31 08:36:35;;;;;;;4.20;2.33;;;21.30;69.30;;;;;;4704149;29;20862;-84
2024/03/31 09:01:42;;;;;;;9.32;2.90;;;21.60;67.00;;;;;;4719750;29;20201;-82
2024/03/31 09:37:15;;;;;;;6.78;2.75;;;22.90;64.80;;;;;;4716428;29;20227;-87
2024/03/31 10:17:15;;;;;;;5.03;2.47;;;23.40;61.50;;;;;;4709813;29;20602;-87
2024/03/31 10:33:12;;;;;;;7.88;2.70;;;23.40;56.60;;;;;;4723613;29;20209;-86
2024/03/31 10:53:28;;;;;;;10.32;3.58;;;23.70;56.90;;;;;;4671210;30;20368;-87
2024/03/31 11:23:44;;;;;;;11.48;3.35;;;25.20;51.60;;;;;;4669602;30;20213;-87
2024/03/31 11:49:10;;;;;;;13.15;4.00;;;24.80;52.80;;;;;;4632301;30;20410;-82
2024/03/31 12:09:07;;;;;;;14.10;4.28;;;25.10;49.30;;;;;;4518732;30;21181;-84
2024/03/31 12:34:44;;;;;;;20.25;5.30;;;25.10;47.50;;;;;;4559150;30;20264;-87
2024/03/31 12:54:42;;;;;;;28.65;5.82;;;25.00;44.40;;;;;;4582136;30;20553;-87
2024/03/31 13:15:09;;;;;;;35.38;7.20;;;25.40;44.30;;;;;;4596828;30;20231;-86
2024/03/31 13:45:52;;;;;;;10.70;4.15;;;25.70;49.60;;;;;;4713287;29;20319;-84
2024/03/31 14:11:14;;;;;;;23.17;5.25;;;25.40;49.80;;;;;;4783584;29;20778;-86
2024/03/31 14:36:18;;;;;;;14.07;4.95;;;24.20;51.20;;;;;;4664964;29;20212;-85
2024/03/31 14:56:38;;;;;;;18.00;5.03;;;23.70;50.00;;;;;;4564551;30;20298;-84
2024/03/31 15:22:12;;;;;;;24.27;5.93;;;23.30;49.40;;;;;;4593114;30;20909;-87
2024/03/31 15:42:31;;;;;;;24.77;5.88;;;23.10;48.70;;;;;;4663420;29;20395;-86
2024/03/31 16:02:26;;;;;;;22.55;5.65;;;22.60;48.50;;;;;;4539802;30;20565;-87
2024/03/31 16:27:59;;;;;;;19.05;6.38;;;21.90;49.20;;;;;;4630326;30;21638;-86
2024/03/31 16:48:19;;;;;;;19.17;6.15;;;21.20;51.30;;;;;;4694173;29;20221;-86
2024/03/31 17:08:16;;;;;;;22.70;5.93;;;20.20;52.00;;;;;;4612608;30;20558;-85
2024/03/31 17:48:47;;;;;;;25.23;6.28;;;19.50;52.10;;;;;;4605957;30;20244;-85
2024/03/31 18:09:19;;;;;;;26.67;6.30;;;18.30;53.50;;;;;;4619236;30;20212;-84
2024/03/31 18:29:42;;;;;;;30.10;6.90;;;17.60;54.50;;;;;;4610009;30;20224;-86
2024/03/31 18:54:48;;;;;;;31.40;7.47;;;16.30;57.00;;;;;;4610424;30;20197;-86
2024/03/31 19:10:26;;;;;;;34.00;7.23;;;15.50;60.60;;;;;;4613358;30;20268;-86
2024/03/31 19:40:39;;;;;;;43.00;8.07;;;14.50;68.60;;;;;;4717303;29;20203;-85
2024/03/31 20:00:58;;;;;;;39.13;8.27;;;14.20;73.70;;;;;;4731446;29;20205;-87
2024/03/31 20:26:31;;;;;;;32.33;8.13;;;15.20;73.80;;;;;;4631314;29;20242;-83
2024/03/31 20:51:45;;;;;;;35.63;9.37;;;16.40;70.80;;;;;;4680051;29;20288;-86
2024/03/31 21:11:37;;;;;;;38.03;7.77;;;17.20;66.70;;;;;;4730914;29;20271;-86
2024/03/31 21:37:04;;;;;;;33.00;8.23;;;17.00;65.60;;;;;;4632072;30;20456;-86
2024/03/31 21:57:47;;;;;;;37.43;8.17;;;16.80;64.90;;;;;;4583124;30;20827;-86
2024/03/31 22:22:43;;;;;;;34.87;7.37;;;16.70;65.10;;;;;;4520313;30;20889;-83
2024/03/31 22:43:12;;;;;;;33.00;8.83;;;16.50;65.00;;;;;;4505894;30;20660;-83
2024/03/31 23:13:49;;;;;;;35.27;8.03;;;16.00;65.30;;;;;;4690533;29;20473;-86
2024/03/31 23:33:48;;;;;;;29.10;8.43;;;15.80;65.80;;;;;;4640139;29;20279;-83
2024/03/31 23:44:09;;;;;;;34.57;7.57;;;15.30;66.50;;;;;;4846056;28;20271;-86
